WetterOnline ( https://www.wetteronline.de )

Wetter aktuell Werl

Aktuelles Wetter: Werl (84m)

6-stündlich | Neueste Meldungen
Ortszeit Temperatur Wetter
Fr, 06.12. 1:00 2.2° C wolkig
Do, 05.12. 19:00 1.6° C wolkig
Do, 05.12. 13:00 4.3° C leicht bewölkt
Do, 05.12. 7:00 -0.3° C wolkenlos
Do, 05.12. 1:00 -1.5° C wolkenlos
Mi, 04.12. 19:00 0.9° C wolkenlos
Mi, 04.12. 13:00 5.9° C leicht bewölkt
Mi, 04.12. 7:00 -0.3° C -
Ortszeit Temperatur Wetter
Fr, 06.12. 2:00 2.5° C wolkig
Fr, 06.12. 1:50 2.5° C wolkig
Fr, 06.12. 1:40 2.6° C wolkig
Fr, 06.12. 1:30 2.5° C bewölkt
Fr, 06.12. 1:20 2.5° C bewölkt
Fr, 06.12. 1:10 2.4° C wolkig
Fr, 06.12. 1:00 2.2° C wolkig
Fr, 06.12. 0:30 2.1° C bewölkt
Fr, 06.12. 0:00 2.3° C wolkig
Do, 05.12. 23:30 2.4° C -
Do, 05.12. 23:00 2.1° C -
Ortszeit Relative Feuchte Sichtweite
Fr, 06.12. 1:00 79% 10 km
Do, 05.12. 19:00 86% 7 km
Do, 05.12. 13:00 77% 10 km
Do, 05.12. 7:00 84% 15 km
Do, 05.12. 1:00 96% 6 km
Mi, 04.12. 19:00 97% 4.1 km
Mi, 04.12. 13:00 72% 19 km
Mi, 04.12. 7:00 99% 4.7 km
Ortszeit Relative Feuchte Sichtweite
Fr, 06.12. 2:00 76% 14 km
Fr, 06.12. 1:50 76% -
Fr, 06.12. 1:40 75% -
Fr, 06.12. 1:30 77% 11 km
Fr, 06.12. 1:20 77% -
Fr, 06.12. 1:10 77% -
Fr, 06.12. 1:00 79% 10 km
Fr, 06.12. 0:30 82% 9 km
Fr, 06.12. 0:00 81% 9 km
Do, 05.12. 23:30 78% 10 km
Do, 05.12. 23:00 78% 11 km
Ortszeit Niederschlagsmenge Niederschlagsart
Fr, 06.12. 1:00 0.0 l/m2 in 6 Std. -
Do, 05.12. 19:00 0.0 l/m2 in 12 Std. -
Do, 05.12. 13:00 0.0 l/m2 in 6 Std. -
Do, 05.12. 7:00 0.0 l/m2 in 12 Std. -
Do, 05.12. 1:00 0.0 l/m2 in 6 Std. -
Mi, 04.12. 19:00 0.0 l/m2 in 12 Std. -
Mi, 04.12. 13:00 0.0 l/m2 in 6 Std. -
Mi, 04.12. 7:00 0.0 l/m2 in 12 Std. -
Ortszeit Niederschlagsmenge Niederschlagsart
Fr, 06.12. 2:00 0.0 l/m2 in 1 Std. -
Fr, 06.12. 1:50 keine Meldung -
Fr, 06.12. 1:40 keine Meldung -
Fr, 06.12. 1:30 0.0 l/m2 in 1 Std. -
Fr, 06.12. 1:20 keine Meldung -
Fr, 06.12. 1:10 keine Meldung -
Fr, 06.12. 1:00 0.0 l/m2 in 1 Std. -
Fr, 06.12. 0:30 0.0 l/m2 in 1 Std. -
Fr, 06.12. 0:00 0.0 l/m2 in 1 Std. -
Do, 05.12. 23:30 0.0 l/m2 in 1 Std. -
Do, 05.12. 23:00 0.0 l/m2 in 1 Std. -
Ortszeit Stärke Spitze Richtung
km/h Bft. km/h Grad Sektor
Fr, 06.12. 1:00 22 4 36 220° SW
Do, 05.12. 19:00 7 2 22 230° SW
Do, 05.12. 13:00 14 3 25 260° W
Do, 05.12. 7:00 9 2 17 210° SW
Do, 05.12. 1:00 4 1 11 150° SO
Mi, 04.12. 19:00 4 1 11 90° O
Mi, 04.12. 13:00 4 1 11 160° S
Mi, 04.12. 7:00 6 1 7 160° S
Ortszeit Stärke Spitze Richtung
km/h Bft. km/h Grad Sektor
Fr, 06.12. 2:00 22 4 32 220° SW
Fr, 06.12. 1:50 22 4 - 220° SW
Fr, 06.12. 1:40 24 4 - 210° SW
Fr, 06.12. 1:30 20 4 30 220° SW
Fr, 06.12. 1:20 20 4 - 220° SW
Fr, 06.12. 1:10 22 4 - 220° SW
Fr, 06.12. 1:00 22 4 32 220° SW
Fr, 06.12. 0:30 18 3 32 220° SW
Fr, 06.12. 0:00 20 4 35 220° SW
Do, 05.12. 23:30 22 4 36 230° SW
Do, 05.12. 23:00 18 3 32 230° SW
Ortszeit Untergrenze Bedeckung Gattung
total tief tief mittel hoch
Fr, 06.12. 1:00 570 m 8/8 1/8 - - -
Do, 05.12. 19:00 8100 m 8/8 0/8 - - -
Do, 05.12. 13:00 9000 m 8/8 0/8 - - -
Do, 05.12. 7:00 - 0/8 0/8 - - -
Do, 05.12. 1:00 - 0/8 0/8 - - -
Mi, 04.12. 19:00 - 0/8 0/8 - - -
Mi, 04.12. 13:00 12000 m 8/8 0/8 - - -
Mi, 04.12. 7:00 - - - - - -
Ortszeit Bedeckungsgrad in Achtel und Wolkenuntergrenze
Fr, 06.12. 2:00 3(510m) 7(9000m) 7(10500m)
Fr, 06.12. 1:50 3(510m) 7(9000m) 7(10500m)
Fr, 06.12. 1:40 5(510m) 7(9000m) 7(9000m)
Fr, 06.12. 1:30 5(540m) 8(7800m) 8(9000m)
Fr, 06.12. 1:20 5(540m) 8(7800m) 8(9000m)
Fr, 06.12. 1:10 3(600m) 8(7800m) 8(9000m)
Fr, 06.12. 1:00 1(570m) 8(10500m) 8(12000m)
Fr, 06.12. 0:30 5(450m) 7(8100m) 8(10500m)
Fr, 06.12. 0:00 3(8100m) 4(9000m) 8(10500m)
Do, 05.12. 23:30 -
Do, 05.12. 23:00 -
Ortszeit Luftdruck NN (hPa) Tendenz (hPa in 3 Std.)
Fr, 06.12. 1:00 1017 - 1,4
Do, 05.12. 19:00 1020 - 0,8
Do, 05.12. 13:00 1021 - 0,7
Do, 05.12. 7:00 1021 + 0,1
Do, 05.12. 1:00 1021 - 0,9
Mi, 04.12. 19:00 1022 - 0,2
Mi, 04.12. 13:00 1023 - 1,3
Mi, 04.12. 7:00 1024 - 0,6
Ortszeit Luftdruck NN (hPa) Tendenz (hPa in 3 Std.)
Fr, 06.12. 2:00 1016 - 1,9
Fr, 06.12. 1:50 1016 keine Meldung
Fr, 06.12. 1:40 1016 keine Meldung
Fr, 06.12. 1:30 1016 - 1,3
Fr, 06.12. 1:20 1016 keine Meldung
Fr, 06.12. 1:10 1017 keine Meldung
Fr, 06.12. 1:00 1017 - 1,4
Fr, 06.12. 0:30 1017 - 1,0
Fr, 06.12. 0:00 1018 - 0,9
Do, 05.12. 23:30 1018 - 1,1
Do, 05.12. 23:00 1018 - 1,6
Ortszeit Schneehöhe (cm)
Fr, 06.12. 1:00 0
Do, 05.12. 19:00 0
Do, 05.12. 13:00 0
Do, 05.12. 7:00 0
Do, 05.12. 1:00 0
Mi, 04.12. 19:00 0
Mi, 04.12. 13:00 0
Mi, 04.12. 7:00 0
Ortszeit Schneehöhe (cm)
Fr, 06.12. 2:00 0
Fr, 06.12. 1:50 0
Fr, 06.12. 1:40 0
Fr, 06.12. 1:30 0
Fr, 06.12. 1:20 0
Fr, 06.12. 1:10 0
Fr, 06.12. 1:00 0
Fr, 06.12. 0:30 0
Fr, 06.12. 0:00 0
Do, 05.12. 23:30 0
Do, 05.12. 23:00 0
Link zu dieser Seite / Seite empfehlen

Das Wetter in ...